Terminal Aerodrome Forecast
Issued by NWS

Home | Current Version | Previous Version | Text Only | Print | Product List | Glossary On
Versions: 1 2 3 4 5 6 7 8 9 10 11 12 13 14 15 16 17 18 19 20 21
000
FTUS44 KBMX 041728
TAFTCL
TAF
KTCL 041728Z 0418/0518 VRB04KT P6SM VCTS SCT050CB
      TEMPO 0418/0422 1SM TSRA BKN025CB
     FM050300 21003KT P6SM VCTS SCT015CB OVC025
     FM050900 19003KT P6SM VCSH OVC015=

USA.gov is the U.S. government's official web portal to all federal, state and local government web resources and services.